sensor_id;sensor_type;location;lat;lon;timestamp;P1;durP1;ratioP1;P2;durP2;ratioP2
75997;SDS011;64685;48.762;44.822;2023-07-20T00:03:13;4.65;;;1.40;;
75997;SDS011;64685;48.762;44.822;2023-07-20T00:08:21;3.67;;;1.30;;
75997;SDS011;64685;48.762;44.822;2023-07-20T00:13:24;3.75;;;1.30;;
75997;SDS011;64685;48.762;44.822;2023-07-20T00:18:26;8.65;;;1.80;;
75997;SDS011;64685;48.762;44.822;2023-07-20T00:23:29;4.13;;;1.50;;
75997;SDS011;64685;48.762;44.822;2023-07-20T00:28:33;3.90;;;1.42;;
75997;SDS011;64685;48.762;44.822;2023-07-20T00:33:36;4.43;;;1.40;;
75997;SDS011;64685;48.762;44.822;2023-07-20T00:38:38;3.28;;;1.27;;
75997;SDS011;64685;48.762;44.822;2023-07-20T00:43:41;4.07;;;1.30;;
75997;SDS011;64685;48.762;44.822;2023-07-20T00:48:44;6.75;;;1.73;;
75997;SDS011;64685;48.762;44.822;2023-07-20T00:53:46;3.35;;;1.10;;
75997;SDS011;64685;48.762;44.822;2023-07-20T00:58:49;4.90;;;1.58;;
75997;SDS011;64685;48.762;44.822;2023-07-20T01:03:53;3.53;;;1.27;;
75997;SDS011;64685;48.762;44.822;2023-07-20T01:09:31;2.75;;;1.15;;
75997;SDS011;64685;48.762;44.822;2023-07-20T01:14:34;5.20;;;1.40;;
75997;SDS011;64685;48.762;44.822;2023-07-20T01:19:37;5.35;;;1.60;;
75997;SDS011;64685;48.762;44.822;2023-07-20T01:30:14;6.18;;;1.50;;
75997;SDS011;64685;48.762;44.822;2023-07-20T01:35:28;6.30;;;1.88;;
75997;SDS011;64685;48.762;44.822;2023-07-20T01:40:32;8.73;;;1.83;;
75997;SDS011;64685;48.762;44.822;2023-07-20T01:45:35;6.85;;;1.80;;
75997;SDS011;64685;48.762;44.822;2023-07-20T01:50:38;5.65;;;1.90;;
75997;SDS011;64685;48.762;44.822;2023-07-20T01:55:40;6.25;;;1.77;;
75997;SDS011;64685;48.762;44.822;2023-07-20T02:00:43;4.53;;;1.50;;
75997;SDS011;64685;48.762;44.822;2023-07-20T02:05:46;6.18;;;1.67;;
75997;SDS011;64685;48.762;44.822;2023-07-20T02:10:48;3.15;;;1.30;;
75997;SDS011;64685;48.762;44.822;2023-07-20T02:15:51;5.22;;;1.40;;
75997;SDS011;64685;48.762;44.822;2023-07-20T02:20:56;7.15;;;1.65;;
75997;SDS011;64685;48.762;44.822;2023-07-20T02:25:58;5.15;;;1.50;;
75997;SDS011;64685;48.762;44.822;2023-07-20T02:31:01;4.68;;;1.67;;
75997;SDS011;64685;48.762;44.822;2023-07-20T02:36:04;6.32;;;1.52;;
75997;SDS011;64685;48.762;44.822;2023-07-20T02:41:06;5.75;;;1.90;;
75997;SDS011;64685;48.762;44.822;2023-07-20T02:46:09;6.63;;;1.70;;
75997;SDS011;64685;48.762;44.822;2023-07-20T02:51:12;7.22;;;1.60;;
75997;SDS011;64685;48.762;44.822;2023-07-20T02:56:15;7.45;;;1.77;;
75997;SDS011;64685;48.762;44.822;2023-07-20T03:01:17;6.22;;;1.63;;
75997;SDS011;64685;48.762;44.822;2023-07-20T03:06:20;12.30;;;2.08;;
75997;SDS011;64685;48.762;44.822;2023-07-20T03:16:26;7.53;;;2.50;;
75997;SDS011;64685;48.762;44.822;2023-07-20T03:21:28;6.80;;;1.80;;
75997;SDS011;64685;48.762;44.822;2023-07-20T03:26:34;7.78;;;2.20;;
75997;SDS011;64685;48.762;44.822;2023-07-20T03:31:37;8.32;;;2.22;;
75997;SDS011;64685;48.762;44.822;2023-07-20T03:36:39;6.18;;;1.80;;
75997;SDS011;64685;48.762;44.822;2023-07-20T03:41:42;9.32;;;2.10;;
75997;SDS011;64685;48.762;44.822;2023-07-20T03:46:45;6.72;;;1.70;;
75997;SDS011;64685;48.762;44.822;2023-07-20T03:51:48;7.15;;;1.83;;
75997;SDS011;64685;48.762;44.822;2023-07-20T03:56:51;7.47;;;1.83;;
75997;SDS011;64685;48.762;44.822;2023-07-20T04:01:53;5.10;;;1.58;;
75997;SDS011;64685;48.762;44.822;2023-07-20T04:06:56;9.60;;;2.20;;
75997;SDS011;64685;48.762;44.822;2023-07-20T04:11:59;6.57;;;1.70;;
75997;SDS011;64685;48.762;44.822;2023-07-20T04:17:02;6.05;;;1.45;;
75997;SDS011;64685;48.762;44.822;2023-07-20T04:22:05;5.78;;;1.48;;
75997;SDS011;64685;48.762;44.822;2023-07-20T04:27:08;7.18;;;1.95;;
75997;SDS011;64685;48.762;44.822;2023-07-20T04:37:13;4.85;;;1.20;;
75997;SDS011;64685;48.762;44.822;2023-07-20T04:42:15;6.75;;;1.70;;
75997;SDS011;64685;48.762;44.822;2023-07-20T04:47:18;7.30;;;2.10;;
75997;SDS011;64685;48.762;44.822;2023-07-20T04:52:23;11.65;;;1.85;;
75997;SDS011;64685;48.762;44.822;2023-07-20T04:57:43;5.30;;;1.27;;
75997;SDS011;64685;48.762;44.822;2023-07-20T05:02:46;5.50;;;1.60;;
75997;SDS011;64685;48.762;44.822;2023-07-20T05:07:50;4.50;;;1.20;;
75997;SDS011;64685;48.762;44.822;2023-07-20T05:12:53;5.30;;;1.48;;
75997;SDS011;64685;48.762;44.822;2023-07-20T05:17:56;6.72;;;1.30;;
75997;SDS011;64685;48.762;44.822;2023-07-20T05:22:59;6.07;;;1.80;;
75997;SDS011;64685;48.762;44.822;2023-07-20T05:28:03;6.35;;;1.92;;
75997;SDS011;64685;48.762;44.822;2023-07-20T05:33:05;7.10;;;1.75;;
75997;SDS011;64685;48.762;44.822;2023-07-20T05:38:08;5.60;;;1.95;;
75997;SDS011;64685;48.762;44.822;2023-07-20T05:43:11;4.10;;;1.40;;
75997;SDS011;64685;48.762;44.822;2023-07-20T05:48:13;5.22;;;1.20;;
75997;SDS011;64685;48.762;44.822;2023-07-20T05:53:16;4.45;;;1.50;;
75997;SDS011;64685;48.762;44.822;2023-07-20T05:58:19;6.57;;;1.40;;
75997;SDS011;64685;48.762;44.822;2023-07-20T06:03:22;5.70;;;1.13;;
75997;SDS011;64685;48.762;44.822;2023-07-20T06:08:25;4.30;;;1.33;;
75997;SDS011;64685;48.762;44.822;2023-07-20T06:13:27;3.72;;;1.00;;
75997;SDS011;64685;48.762;44.822;2023-07-20T06:18:30;3.50;;;1.15;;
75997;SDS011;64685;48.762;44.822;2023-07-20T06:23:33;4.03;;;1.40;;
75997;SDS011;64685;48.762;44.822;2023-07-20T06:28:35;2.72;;;0.85;;
75997;SDS011;64685;48.762;44.822;2023-07-20T06:33:38;7.30;;;1.17;;
75997;SDS011;64685;48.762;44.822;2023-07-20T06:38:41;3.63;;;1.10;;
75997;SDS011;64685;48.762;44.822;2023-07-20T06:44:03;5.70;;;1.02;;
75997;SDS011;64685;48.762;44.822;2023-07-20T06:49:07;3.72;;;1.08;;
75997;SDS011;64685;48.762;44.822;2023-07-20T06:54:15;4.82;;;1.30;;
75997;SDS011;64685;48.762;44.822;2023-07-20T06:59:17;3.65;;;1.10;;
75997;SDS011;64685;48.762;44.822;2023-07-20T07:04:20;4.30;;;1.00;;
75997;SDS011;64685;48.762;44.822;2023-07-20T07:09:23;6.90;;;1.30;;
75997;SDS011;64685;48.762;44.822;2023-07-20T07:14:26;5.10;;;1.20;;
75997;SDS011;64685;48.762;44.822;2023-07-20T07:19:29;4.65;;;1.50;;
75997;SDS011;64685;48.762;44.822;2023-07-20T07:24:31;6.25;;;1.52;;
75997;SDS011;64685;48.762;44.822;2023-07-20T07:29:37;5.65;;;1.83;;
75997;SDS011;64685;48.762;44.822;2023-07-20T07:34:40;5.53;;;1.40;;
75997;SDS011;64685;48.762;44.822;2023-07-20T07:39:42;4.80;;;1.25;;
75997;SDS011;64685;48.762;44.822;2023-07-20T07:44:45;4.00;;;1.70;;
75997;SDS011;64685;48.762;44.822;2023-07-20T07:49:47;2.90;;;1.13;;
75997;SDS011;64685;48.762;44.822;2023-07-20T07:54:50;4.68;;;1.60;;
75997;SDS011;64685;48.762;44.822;2023-07-20T07:59:53;4.78;;;1.60;;
75997;SDS011;64685;48.762;44.822;2023-07-20T08:04:55;6.07;;;1.48;;
75997;SDS011;64685;48.762;44.822;2023-07-20T08:09:58;5.72;;;1.38;;
75997;SDS011;64685;48.762;44.822;2023-07-20T08:15:04;4.75;;;0.95;;
75997;SDS011;64685;48.762;44.822;2023-07-20T08:20:08;4.45;;;1.75;;
75997;SDS011;64685;48.762;44.822;2023-07-20T08:25:14;3.90;;;0.93;;
75997;SDS011;64685;48.762;44.822;2023-07-20T08:30:16;4.93;;;1.30;;
75997;SDS011;64685;48.762;44.822;2023-07-20T08:35:19;2.95;;;1.17;;
75997;SDS011;64685;48.762;44.822;2023-07-20T08:40:24;2.78;;;1.17;;
75997;SDS011;64685;48.762;44.822;2023-07-20T08:45:29;4.68;;;1.05;;
75997;SDS011;64685;48.762;44.822;2023-07-20T08:55:37;4.70;;;1.02;;
75997;SDS011;64685;48.762;44.822;2023-07-20T09:00:41;6.00;;;1.40;;
75997;SDS011;64685;48.762;44.822;2023-07-20T09:05:47;3.97;;;0.90;;
75997;SDS011;64685;48.762;44.822;2023-07-20T09:10:50;3.80;;;1.08;;
75997;SDS011;64685;48.762;44.822;2023-07-20T09:15:53;3.28;;;1.00;;
75997;SDS011;64685;48.762;44.822;2023-07-20T09:21:03;8.15;;;1.75;;
75997;SDS011;64685;48.762;44.822;2023-07-20T09:26:11;5.45;;;1.15;;
75997;SDS011;64685;48.762;44.822;2023-07-20T09:31:19;4.38;;;1.40;;
75997;SDS011;64685;48.762;44.822;2023-07-20T09:36:23;4.97;;;1.70;;
75997;SDS011;64685;48.762;44.822;2023-07-20T09:41:45;4.72;;;1.20;;
75997;SDS011;64685;48.762;44.822;2023-07-20T09:46:49;3.88;;;1.23;;
75997;SDS011;64685;48.762;44.822;2023-07-20T09:51:56;4.03;;;1.13;;
75997;SDS011;64685;48.762;44.822;2023-07-20T09:57:01;3.17;;;0.98;;
75997;SDS011;64685;48.762;44.822;2023-07-20T10:02:05;3.42;;;1.30;;
75997;SDS011;64685;48.762;44.822;2023-07-20T10:07:16;4.55;;;1.70;;
75997;SDS011;64685;48.762;44.822;2023-07-20T10:12:23;4.22;;;1.10;;
75997;SDS011;64685;48.762;44.822;2023-07-20T10:17:27;4.95;;;1.67;;
75997;SDS011;64685;48.762;44.822;2023-07-20T10:22:31;3.53;;;1.30;;
75997;SDS011;64685;48.762;44.822;2023-07-20T10:27:43;3.63;;;1.15;;
75997;SDS011;64685;48.762;44.822;2023-07-20T10:32:46;3.28;;;1.00;;
75997;SDS011;64685;48.762;44.822;2023-07-20T10:37:51;3.20;;;0.90;;
75997;SDS011;64685;48.762;44.822;2023-07-20T10:43:02;3.00;;;1.17;;
75997;SDS011;64685;48.762;44.822;2023-07-20T10:48:16;4.63;;;1.10;;
75997;SDS011;64685;48.762;44.822;2023-07-20T10:53:21;4.60;;;1.33;;
75997;SDS011;64685;48.762;44.822;2023-07-20T11:03:31;3.70;;;1.08;;
75997;SDS011;64685;48.762;44.822;2023-07-20T11:08:42;5.38;;;1.42;;
75997;SDS011;64685;48.762;44.822;2023-07-20T11:14:03;6.57;;;1.33;;
75997;SDS011;64685;48.762;44.822;2023-07-20T11:19:28;4.85;;;1.23;;
75997;SDS011;64685;48.762;44.822;2023-07-20T11:24:33;4.25;;;1.30;;
75997;SDS011;64685;48.762;44.822;2023-07-20T11:34:39;10.73;;;2.78;;
75997;SDS011;64685;48.762;44.822;2023-07-20T11:39:41;3.25;;;1.08;;
75997;SDS011;64685;48.762;44.822;2023-07-20T11:44:44;3.22;;;1.20;;
75997;SDS011;64685;48.762;44.822;2023-07-20T11:49:47;5.93;;;1.73;;
75997;SDS011;64685;48.762;44.822;2023-07-20T11:54:55;4.93;;;1.90;;
75997;SDS011;64685;48.762;44.822;2023-07-20T11:59:58;4.35;;;1.20;;
75997;SDS011;64685;48.762;44.822;2023-07-20T12:05:11;2.97;;;1.10;;
75997;SDS011;64685;48.762;44.822;2023-07-20T12:10:14;2.90;;;1.00;;
75997;SDS011;64685;48.762;44.822;2023-07-20T12:30:39;3.63;;;1.30;;
75997;SDS011;64685;48.762;44.822;2023-07-20T12:35:42;3.45;;;1.30;;
75997;SDS011;64685;48.762;44.822;2023-07-20T12:40:45;3.72;;;1.20;;
75997;SDS011;64685;48.762;44.822;2023-07-20T12:45:48;5.22;;;1.40;;
75997;SDS011;64685;48.762;44.822;2023-07-20T12:55:54;4.03;;;1.25;;
75997;SDS011;64685;48.762;44.822;2023-07-20T13:00:56;5.05;;;1.27;;
75997;SDS011;64685;48.762;44.822;2023-07-20T13:06:02;3.97;;;1.40;;
75997;SDS011;64685;48.762;44.822;2023-07-20T13:11:07;3.85;;;1.30;;
75997;SDS011;64685;48.762;44.822;2023-07-20T13:16:10;4.35;;;1.20;;
75997;SDS011;64685;48.762;44.822;2023-07-20T13:21:12;5.28;;;1.45;;
75997;SDS011;64685;48.762;44.822;2023-07-20T13:26:15;4.53;;;1.48;;
75997;SDS011;64685;48.762;44.822;2023-07-20T13:31:18;3.70;;;1.60;;
75997;SDS011;64685;48.762;44.822;2023-07-20T13:36:21;3.35;;;1.38;;
75997;SDS011;64685;48.762;44.822;2023-07-20T13:41:25;6.90;;;1.42;;
75997;SDS011;64685;48.762;44.822;2023-07-20T13:46:28;4.38;;;1.52;;
75997;SDS011;64685;48.762;44.822;2023-07-20T13:51:33;5.00;;;1.50;;
75997;SDS011;64685;48.762;44.822;2023-07-20T13:56:37;4.30;;;1.30;;
75997;SDS011;64685;48.762;44.822;2023-07-20T14:06:42;6.57;;;1.83;;
75997;SDS011;64685;48.762;44.822;2023-07-20T14:11:46;3.80;;;1.30;;
75997;SDS011;64685;48.762;44.822;2023-07-20T14:16:52;4.40;;;1.40;;
75997;SDS011;64685;48.762;44.822;2023-07-20T14:21:54;4.15;;;1.60;;
75997;SDS011;64685;48.762;44.822;2023-07-20T14:26:57;4.35;;;1.88;;
75997;SDS011;64685;48.762;44.822;2023-07-20T14:32:00;6.85;;;1.90;;
75997;SDS011;64685;48.762;44.822;2023-07-20T14:42:06;3.45;;;1.67;;
75997;SDS011;64685;48.762;44.822;2023-07-20T14:47:09;4.75;;;1.80;;
75997;SDS011;64685;48.762;44.822;2023-07-20T14:52:16;4.10;;;2.13;;
75997;SDS011;64685;48.762;44.822;2023-07-20T14:57:19;6.38;;;2.42;;
75997;SDS011;64685;48.762;44.822;2023-07-20T15:02:24;8.23;;;2.45;;
75997;SDS011;64685;48.762;44.822;2023-07-20T15:07:27;8.57;;;2.92;;
75997;SDS011;64685;48.762;44.822;2023-07-20T15:12:30;6.05;;;2.63;;
75997;SDS011;64685;48.762;44.822;2023-07-20T15:17:33;5.47;;;2.65;;
75997;SDS011;64685;48.762;44.822;2023-07-20T15:22:37;5.40;;;2.10;;
75997;SDS011;64685;48.762;44.822;2023-07-20T15:27:43;4.80;;;1.70;;
75997;SDS011;64685;48.762;44.822;2023-07-20T15:32:51;6.32;;;2.17;;
75997;SDS011;64685;48.762;44.822;2023-07-20T15:37:57;7.53;;;2.08;;
75997;SDS011;64685;48.762;44.822;2023-07-20T15:43:01;4.47;;;1.88;;
75997;SDS011;64685;48.762;44.822;2023-07-20T15:48:21;5.65;;;2.00;;
75997;SDS011;64685;48.762;44.822;2023-07-20T15:53:24;5.25;;;2.22;;
75997;SDS011;64685;48.762;44.822;2023-07-20T15:58:27;5.75;;;2.20;;
75997;SDS011;64685;48.762;44.822;2023-07-20T16:03:29;5.55;;;1.92;;
75997;SDS011;64685;48.762;44.822;2023-07-20T16:08:36;6.63;;;2.20;;
75997;SDS011;64685;48.762;44.822;2023-07-20T16:13:38;8.55;;;2.33;;
75997;SDS011;64685;48.762;44.822;2023-07-20T16:18:41;4.68;;;2.08;;
75997;SDS011;64685;48.762;44.822;2023-07-20T16:23:44;6.63;;;2.70;;
75997;SDS011;64685;48.762;44.822;2023-07-20T16:28:46;7.85;;;2.92;;
75997;SDS011;64685;48.762;44.822;2023-07-20T16:33:49;8.00;;;3.17;;
75997;SDS011;64685;48.762;44.822;2023-07-20T16:38:51;9.10;;;3.72;;
75997;SDS011;64685;48.762;44.822;2023-07-20T16:44:14;7.07;;;3.83;;
75997;SDS011;64685;48.762;44.822;2023-07-20T16:49:16;7.95;;;3.58;;
75997;SDS011;64685;48.762;44.822;2023-07-20T16:54:19;11.32;;;3.83;;
75997;SDS011;64685;48.762;44.822;2023-07-20T16:59:21;11.13;;;4.07;;
75997;SDS011;64685;48.762;44.822;2023-07-20T17:04:25;11.20;;;4.47;;
75997;SDS011;64685;48.762;44.822;2023-07-20T17:09:28;13.95;;;4.88;;
75997;SDS011;64685;48.762;44.822;2023-07-20T17:14:34;14.25;;;5.57;;
75997;SDS011;64685;48.762;44.822;2023-07-20T17:19:37;14.65;;;5.60;;
75997;SDS011;64685;48.762;44.822;2023-07-20T17:24:39;13.55;;;6.18;;
75997;SDS011;64685;48.762;44.822;2023-07-20T17:29:45;13.98;;;5.53;;
75997;SDS011;64685;48.762;44.822;2023-07-20T17:34:48;10.77;;;5.18;;
75997;SDS011;64685;48.762;44.822;2023-07-20T17:39:51;13.20;;;5.50;;
75997;SDS011;64685;48.762;44.822;2023-07-20T17:44:56;13.23;;;4.82;;
75997;SDS011;64685;48.762;44.822;2023-07-20T17:49:59;12.90;;;4.15;;
75997;SDS011;64685;48.762;44.822;2023-07-20T17:55:05;14.30;;;4.28;;
75997;SDS011;64685;48.762;44.822;2023-07-20T18:00:08;9.65;;;4.70;;
75997;SDS011;64685;48.762;44.822;2023-07-20T18:05:15;10.13;;;4.25;;
75997;SDS011;64685;48.762;44.822;2023-07-20T18:10:19;11.20;;;4.13;;
75997;SDS011;64685;48.762;44.822;2023-07-20T18:15:21;12.88;;;4.60;;
75997;SDS011;64685;48.762;44.822;2023-07-20T18:20:24;8.63;;;3.95;;
75997;SDS011;64685;48.762;44.822;2023-07-20T18:25:26;9.95;;;4.40;;
75997;SDS011;64685;48.762;44.822;2023-07-20T18:30:31;6.70;;;3.63;;
75997;SDS011;64685;48.762;44.822;2023-07-20T18:35:36;8.32;;;3.63;;
75997;SDS011;64685;48.762;44.822;2023-07-20T18:40:39;11.02;;;4.20;;
75997;SDS011;64685;48.762;44.822;2023-07-20T18:45:41;9.70;;;3.75;;
75997;SDS011;64685;48.762;44.822;2023-07-20T18:55:48;11.85;;;4.20;;
75997;SDS011;64685;48.762;44.822;2023-07-20T19:00:51;8.35;;;3.45;;
75997;SDS011;64685;48.762;44.822;2023-07-20T19:05:53;10.45;;;4.10;;
75997;SDS011;64685;48.762;44.822;2023-07-20T19:10:59;10.13;;;4.03;;
75997;SDS011;64685;48.762;44.822;2023-07-20T19:16:05;8.88;;;4.28;;
75997;SDS011;64685;48.762;44.822;2023-07-20T19:21:10;12.38;;;4.90;;
75997;SDS011;64685;48.762;44.822;2023-07-20T19:26:12;14.07;;;5.25;;
75997;SDS011;64685;48.762;44.822;2023-07-20T19:31:15;12.68;;;4.85;;
75997;SDS011;64685;48.762;44.822;2023-07-20T19:36:17;12.45;;;5.32;;
75997;SDS011;64685;48.762;44.822;2023-07-20T19:41:22;10.32;;;4.60;;
75997;SDS011;64685;48.762;44.822;2023-07-20T19:46:24;10.07;;;4.82;;
75997;SDS011;64685;48.762;44.822;2023-07-20T19:51:28;8.20;;;3.63;;
75997;SDS011;64685;48.762;44.822;2023-07-20T19:56:30;8.93;;;3.47;;
75997;SDS011;64685;48.762;44.822;2023-07-20T20:01:33;10.48;;;3.72;;
75997;SDS011;64685;48.762;44.822;2023-07-20T20:06:39;9.00;;;3.33;;
75997;SDS011;64685;48.762;44.822;2023-07-20T20:11:42;7.25;;;2.60;;
75997;SDS011;64685;48.762;44.822;2023-07-20T20:16:45;6.35;;;2.65;;
75997;SDS011;64685;48.762;44.822;2023-07-20T20:21:48;8.20;;;2.47;;
75997;SDS011;64685;48.762;44.822;2023-07-20T20:26:51;7.30;;;2.55;;
75997;SDS011;64685;48.762;44.822;2023-07-20T20:31:53;7.82;;;2.83;;
75997;SDS011;64685;48.762;44.822;2023-07-20T20:36:56;5.45;;;2.25;;
75997;SDS011;64685;48.762;44.822;2023-07-20T20:41:59;7.70;;;2.70;;
75997;SDS011;64685;48.762;44.822;2023-07-20T20:47:01;6.95;;;2.63;;
75997;SDS011;64685;48.762;44.822;2023-07-20T20:52:05;6.38;;;2.95;;
75997;SDS011;64685;48.762;44.822;2023-07-20T20:57:07;4.80;;;2.30;;
75997;SDS011;64685;48.762;44.822;2023-07-20T21:02:12;8.18;;;2.20;;
75997;SDS011;64685;48.762;44.822;2023-07-20T21:07:19;7.57;;;2.55;;
75997;SDS011;64685;48.762;44.822;2023-07-20T21:12:22;6.97;;;2.55;;
75997;SDS011;64685;48.762;44.822;2023-07-20T21:17:25;7.00;;;2.35;;
75997;SDS011;64685;48.762;44.822;2023-07-20T21:22:28;5.70;;;2.03;;
75997;SDS011;64685;48.762;44.822;2023-07-20T21:27:31;7.25;;;2.28;;
75997;SDS011;64685;48.762;44.822;2023-07-20T21:32:35;7.65;;;2.28;;
75997;SDS011;64685;48.762;44.822;2023-07-20T21:37:38;5.25;;;2.38;;
75997;SDS011;64685;48.762;44.822;2023-07-20T21:42:41;4.57;;;2.10;;
75997;SDS011;64685;48.762;44.822;2023-07-20T21:47:44;5.43;;;2.38;;
75997;SDS011;64685;48.762;44.822;2023-07-20T21:52:46;5.88;;;2.03;;
75997;SDS011;64685;48.762;44.822;2023-07-20T21:57:49;3.75;;;1.90;;
75997;SDS011;64685;48.762;44.822;2023-07-20T22:02:52;7.00;;;2.10;;
75997;SDS011;64685;48.762;44.822;2023-07-20T22:07:55;6.28;;;2.97;;
75997;SDS011;64685;48.762;44.822;2023-07-20T22:12:57;6.93;;;2.67;;
75997;SDS011;64685;48.762;44.822;2023-07-20T22:18:00;5.13;;;2.22;;
75997;SDS011;64685;48.762;44.822;2023-07-20T22:23:09;5.93;;;2.50;;
75997;SDS011;64685;48.762;44.822;2023-07-20T22:28:11;5.95;;;2.35;;
75997;SDS011;64685;48.762;44.822;2023-07-20T22:33:14;6.40;;;2.03;;
75997;SDS011;64685;48.762;44.822;2023-07-20T22:38:16;4.65;;;2.25;;
75997;SDS011;64685;48.762;44.822;2023-07-20T22:43:19;7.00;;;2.42;;
75997;SDS011;64685;48.762;44.822;2023-07-20T22:48:27;6.05;;;1.77;;
75997;SDS011;64685;48.762;44.822;2023-07-20T22:53:30;4.85;;;2.10;;
75997;SDS011;64685;48.762;44.822;2023-07-20T22:58:32;4.10;;;2.10;;
75997;SDS011;64685;48.762;44.822;2023-07-20T23:03:35;5.20;;;2.10;;
75997;SDS011;64685;48.762;44.822;2023-07-20T23:08:38;4.85;;;2.00;;
75997;SDS011;64685;48.762;44.822;2023-07-20T23:13:41;5.97;;;2.28;;
75997;SDS011;64685;48.762;44.822;2023-07-20T23:18:43;6.25;;;2.10;;
75997;SDS011;64685;48.762;44.822;2023-07-20T23:23:47;3.35;;;1.48;;
75997;SDS011;64685;48.762;44.822;2023-07-20T23:28:52;4.47;;;1.88;;
75997;SDS011;64685;48.762;44.822;2023-07-20T23:33:55;3.80;;;1.80;;
75997;SDS011;64685;48.762;44.822;2023-07-20T23:38:58;7.00;;;2.25;;
75997;SDS011;64685;48.762;44.822;2023-07-20T23:44:01;3.88;;;1.95;;
75997;SDS011;64685;48.762;44.822;2023-07-20T23:49:04;6.20;;;2.00;;
75997;SDS011;64685;48.762;44.822;2023-07-20T23:54:06;5.40;;;1.83;;
75997;SDS011;64685;48.762;44.822;2023-07-20T23:59:09;6.40;;;1.70;;
